sensor_id;sensor_type;location;lat;lon;timestamp;pressure;altitude;pressure_sealevel;temperature;humidity
35577;BME280;21680;52.400;16.920;2023-04-07T00:02:12;101071.79;;;3.49;57.33
35577;BME280;21680;52.400;16.920;2023-04-07T00:04:37;101072.16;;;3.47;57.33
35577;BME280;21680;52.400;16.920;2023-04-07T00:07:02;101070.41;;;3.44;57.46
35577;BME280;21680;52.400;16.920;2023-04-07T00:09:28;101070.95;;;3.43;57.84
35577;BME280;21680;52.400;16.920;2023-04-07T00:11:53;101068.85;;;3.42;58.00
35577;BME280;21680;52.400;16.920;2023-04-07T00:14:19;101063.92;;;3.38;57.91
35577;BME280;21680;52.400;16.920;2023-04-07T00:16:44;101057.94;;;3.35;58.03
35577;BME280;21680;52.400;16.920;2023-04-07T00:19:09;101051.76;;;3.35;58.28
35577;BME280;21680;52.400;16.920;2023-04-07T00:21:35;101052.30;;;3.34;58.24
35577;BME280;21680;52.400;16.920;2023-04-07T00:24:00;101053.73;;;3.30;58.41
35577;BME280;21680;52.400;16.920;2023-04-07T00:26:25;101056.07;;;3.24;58.66
35577;BME280;21680;52.400;16.920;2023-04-07T00:28:56;101063.84;;;3.23;58.93
35577;BME280;21680;52.400;16.920;2023-04-07T00:31:22;101066.16;;;3.20;59.01
35577;BME280;21680;52.400;16.920;2023-04-07T00:33:47;101069.73;;;3.15;59.26
35577;BME280;21680;52.400;16.920;2023-04-07T00:36:13;101063.73;;;3.13;59.12
35577;BME280;21680;52.400;16.920;2023-04-07T00:38:39;101066.23;;;3.10;59.32
35577;BME280;21680;52.400;16.920;2023-04-07T00:41:05;101059.21;;;3.04;59.67
35577;BME280;21680;52.400;16.920;2023-04-07T00:43:30;101060.46;;;3.01;59.71
35577;BME280;21680;52.400;16.920;2023-04-07T00:45:56;101056.61;;;2.94;60.17
35577;BME280;21680;52.400;16.920;2023-04-07T00:48:21;101052.58;;;2.91;60.41
35577;BME280;21680;52.400;16.920;2023-04-07T00:50:47;101052.39;;;2.92;60.47
35577;BME280;21680;52.400;16.920;2023-04-07T00:53:12;101049.92;;;2.91;60.31
35577;BME280;21680;52.400;16.920;2023-04-07T00:55:37;101044.66;;;2.87;60.63
35577;BME280;21680;52.400;16.920;2023-04-07T00:58:03;101040.96;;;2.83;60.58
35577;BME280;21680;52.400;16.920;2023-04-07T01:00:48;101045.02;;;2.83;60.91
35577;BME280;21680;52.400;16.920;2023-04-07T01:03:20;101040.11;;;2.78;61.13
35577;BME280;21680;52.400;16.920;2023-04-07T01:06:01;101036.60;;;2.75;61.14
35577;BME280;21680;52.400;16.920;2023-04-07T01:08:46;101036.42;;;2.75;61.58
35577;BME280;21680;52.400;16.920;2023-04-07T01:11:36;101033.80;;;2.70;61.70
35577;BME280;21680;52.400;16.920;2023-04-07T01:14:09;101027.98;;;2.68;61.87
35577;BME280;21680;52.400;16.920;2023-04-07T01:16:50;101029.59;;;2.65;61.81
35577;BME280;21680;52.400;16.920;2023-04-07T01:19:33;101025.59;;;2.59;62.13
35577;BME280;21680;52.400;16.920;2023-04-07T01:21:59;101017.67;;;2.57;62.06
35577;BME280;21680;52.400;16.920;2023-04-07T01:24:49;101018.04;;;2.52;62.47
35577;BME280;21680;52.400;16.920;2023-04-07T01:27:27;101016.67;;;2.43;62.86
35577;BME280;21680;52.400;16.920;2023-04-07T01:29:55;101013.34;;;2.37;62.88
35577;BME280;21680;52.400;16.920;2023-04-07T01:32:23;101011.77;;;2.36;63.22
35577;BME280;21680;52.400;16.920;2023-04-07T01:34:51;101013.02;;;2.33;63.41
35577;BME280;21680;52.400;16.920;2023-04-07T01:37:18;101010.73;;;2.29;63.71
35577;BME280;21680;52.400;16.920;2023-04-07T01:39:44;101007.91;;;2.27;63.80
35577;BME280;21680;52.400;16.920;2023-04-07T01:42:10;101003.70;;;2.24;64.12
35577;BME280;21680;52.400;16.920;2023-04-07T01:44:37;101001.42;;;2.21;64.27
35577;BME280;21680;52.400;16.920;2023-04-07T01:47:03;101000.38;;;2.16;64.51
35577;BME280;21680;52.400;16.920;2023-04-07T01:49:30;100998.44;;;2.15;64.67
35577;BME280;21680;52.400;16.920;2023-04-07T01:51:57;100996.87;;;2.11;65.16
35577;BME280;21680;52.400;16.920;2023-04-07T01:54:22;100997.93;;;2.10;65.37
35577;BME280;21680;52.400;16.920;2023-04-07T01:56:48;100992.29;;;2.10;65.46
35577;BME280;21680;52.400;16.920;2023-04-07T01:59:13;100990.88;;;2.12;65.62
35577;BME280;21680;52.400;16.920;2023-04-07T02:01:38;100991.75;;;2.12;65.57
35577;BME280;21680;52.400;16.920;2023-04-07T02:04:19;100987.35;;;2.10;65.80
35577;BME280;21680;52.400;16.920;2023-04-07T02:06:51;100983.83;;;2.09;65.87
35577;BME280;21680;52.400;16.920;2023-04-07T02:09:17;100981.73;;;2.05;66.44
35577;BME280;21680;52.400;16.920;2023-04-07T02:11:44;100979.27;;;2.04;66.87
35577;BME280;21680;52.400;16.920;2023-04-07T02:14:10;100979.80;;;2.04;66.90
35577;BME280;21680;52.400;16.920;2023-04-07T02:16:36;100977.87;;;1.99;67.54
35577;BME280;21680;52.400;16.920;2023-04-07T02:19:02;100975.95;;;1.94;68.43
35577;BME280;21680;52.400;16.920;2023-04-07T02:21:29;100979.48;;;1.89;68.41
35577;BME280;21680;52.400;16.920;2023-04-07T02:23:55;100975.97;;;1.87;69.00
35577;BME280;21680;52.400;16.920;2023-04-07T02:26:20;100975.79;;;1.85;69.48
35577;BME280;21680;52.400;16.920;2023-04-07T02:28:45;100975.27;;;1.82;69.61
35577;BME280;21680;52.400;16.920;2023-04-07T02:31:11;100972.27;;;1.82;69.90
35577;BME280;21680;52.400;16.920;2023-04-07T02:33:38;100968.93;;;1.81;70.21
35577;BME280;21680;52.400;16.920;2023-04-07T02:36:03;100970.52;;;1.81;70.35
35577;BME280;21680;52.400;16.920;2023-04-07T02:38:29;100965.77;;;1.81;70.53
35577;BME280;21680;52.400;16.920;2023-04-07T02:40:54;100965.58;;;1.83;70.31
35577;BME280;21680;52.400;16.920;2023-04-07T02:43:20;100962.58;;;1.83;70.65
35577;BME280;21680;52.400;16.920;2023-04-07T02:45:45;100961.53;;;1.81;70.87
35577;BME280;21680;52.400;16.920;2023-04-07T02:48:11;100958.37;;;1.80;70.84
35577;BME280;21680;52.400;16.920;2023-04-07T02:50:36;100956.25;;;1.80;71.08
35577;BME280;21680;52.400;16.920;2023-04-07T02:53:02;100954.31;;;1.79;71.26
35577;BME280;21680;52.400;16.920;2023-04-07T02:55:27;100952.38;;;1.81;71.43
35577;BME280;21680;52.400;16.920;2023-04-07T02:57:52;100949.20;;;1.78;71.84
35577;BME280;21680;52.400;16.920;2023-04-07T03:00:17;100950.10;;;1.73;72.13
35577;BME280;21680;52.400;16.920;2023-04-07T03:02:43;100949.75;;;1.72;72.18
35577;BME280;21680;52.400;16.920;2023-04-07T03:05:08;100950.45;;;1.75;72.11
35577;BME280;21680;52.400;16.920;2023-04-07T03:07:33;100950.80;;;1.77;72.20
35577;BME280;21680;52.400;16.920;2023-04-07T03:09:58;100944.63;;;1.77;72.53
35577;BME280;21680;52.400;16.920;2023-04-07T03:12:24;100945.34;;;1.74;72.82
35577;BME280;21680;52.400;16.920;2023-04-07T03:14:49;100949.40;;;1.71;73.16
35577;BME280;21680;52.400;16.920;2023-04-07T03:17:15;100948.70;;;1.69;73.40
35577;BME280;21680;52.400;16.920;2023-04-07T03:19:40;100944.48;;;1.69;73.45
35577;BME280;21680;52.400;16.920;2023-04-07T03:22:05;100948.88;;;1.70;73.28
35577;BME280;21680;52.400;16.920;2023-04-07T03:24:30;100948.70;;;1.68;73.82
35577;BME280;21680;52.400;16.920;2023-04-07T03:26:56;100948.54;;;1.67;73.91
35577;BME280;21680;52.400;16.920;2023-04-07T03:29:21;100946.23;;;1.69;73.91
35577;BME280;21680;52.400;16.920;2023-04-07T03:31:46;100946.41;;;1.71;73.93
35577;BME280;21680;52.400;16.920;2023-04-07T03:34:12;100939.36;;;1.68;74.11
35577;BME280;21680;52.400;16.920;2023-04-07T03:36:37;100939.20;;;1.67;74.25
35577;BME280;21680;52.400;16.920;2023-04-07T03:39:02;100936.91;;;1.66;74.66
35577;BME280;21680;52.400;16.920;2023-04-07T03:41:27;100933.21;;;1.63;74.84
35577;BME280;21680;52.400;16.920;2023-04-07T03:43:53;100932.51;;;1.66;74.74
35577;BME280;21680;52.400;16.920;2023-04-07T03:46:19;100927.91;;;1.67;74.97
35577;BME280;21680;52.400;16.920;2023-04-07T03:48:45;100926.34;;;1.67;74.84
35577;BME280;21680;52.400;16.920;2023-04-07T03:51:11;100924.75;;;1.67;75.01
35577;BME280;21680;52.400;16.920;2023-04-07T03:53:36;100924.40;;;1.67;75.25
35577;BME280;21680;52.400;16.920;2023-04-07T03:56:02;100921.58;;;1.67;75.22
35577;BME280;21680;52.400;16.920;2023-04-07T03:58:27;100922.46;;;1.66;75.35
35577;BME280;21680;52.400;16.920;2023-04-07T04:00:52;100922.64;;;1.64;75.74
35577;BME280;21680;52.400;16.920;2023-04-07T04:03:18;100921.06;;;1.62;75.86
35577;BME280;21680;52.400;16.920;2023-04-07T04:05:43;100920.36;;;1.63;75.89
35577;BME280;21680;52.400;16.920;2023-04-07T04:08:08;100916.13;;;1.66;76.03
35577;BME280;21680;52.400;16.920;2023-04-07T04:10:33;100914.89;;;1.66;76.16
35577;BME280;21680;52.400;16.920;2023-04-07T04:12:59;100914.70;;;1.70;76.26
35577;BME280;21680;52.400;16.920;2023-04-07T04:15:25;100919.80;;;1.73;76.34
35577;BME280;21680;52.400;16.920;2023-04-07T04:17:50;100916.45;;;1.75;76.37
35577;BME280;21680;52.400;16.920;2023-04-07T04:20:16;100917.67;;;1.76;76.46
35577;BME280;21680;52.400;16.920;2023-04-07T04:22:41;100915.02;;;1.80;76.60
35577;BME280;21680;52.400;16.920;2023-04-07T04:25:07;100919.25;;;1.79;76.40
35577;BME280;21680;52.400;16.920;2023-04-07T04:27:32;100922.25;;;1.79;76.45
35577;BME280;21680;52.400;16.920;2023-04-07T04:29:57;100925.59;;;1.81;76.74
35577;BME280;21680;52.400;16.920;2023-04-07T04:32:23;100921.36;;;1.81;76.64
35577;BME280;21680;52.400;16.920;2023-04-07T04:34:48;100921.70;;;1.84;76.84
35577;BME280;21680;52.400;16.920;2023-04-07T04:37:13;100925.57;;;1.88;76.91
35577;BME280;21680;52.400;16.920;2023-04-07T04:39:38;100923.44;;;1.92;76.77
35577;BME280;21680;52.400;16.920;2023-04-07T04:42:04;100923.95;;;1.96;76.97
35577;BME280;21680;52.400;16.920;2023-04-07T04:44:29;100921.13;;;1.98;76.89
35577;BME280;21680;52.400;16.920;2023-04-07T04:46:55;100921.29;;;1.99;76.71
35577;BME280;21680;52.400;16.920;2023-04-07T04:49:21;100919.19;;;1.99;76.82
35577;BME280;21680;52.400;16.920;2023-04-07T04:51:46;100918.65;;;1.98;76.66
35577;BME280;21680;52.400;16.920;2023-04-07T04:54:12;100922.52;;;2.01;76.89
35577;BME280;21680;52.400;16.920;2023-04-07T04:56:37;100922.69;;;2.02;76.95
35577;BME280;21680;52.400;16.920;2023-04-07T04:59:03;100918.11;;;2.03;76.84
35577;BME280;21680;52.400;16.920;2023-04-07T05:01:29;100918.27;;;2.04;76.89
35577;BME280;21680;52.400;16.920;2023-04-07T05:03:54;100922.69;;;2.04;76.89
35577;BME280;21680;52.400;16.920;2023-04-07T05:06:20;100917.74;;;2.06;76.91
35577;BME280;21680;52.400;16.920;2023-04-07T05:08:45;100918.09;;;2.07;76.82
35577;BME280;21680;52.400;16.920;2023-04-07T05:11:11;100915.63;;;2.07;76.98
35577;BME280;21680;52.400;16.920;2023-04-07T05:13:36;100914.21;;;2.09;76.93
35577;BME280;21680;52.400;16.920;2023-04-07T05:16:01;100917.20;;;2.10;76.99
35577;BME280;21680;52.400;16.920;2023-04-07T05:18:27;100918.41;;;2.14;77.07
35577;BME280;21680;52.400;16.920;2023-04-07T05:20:52;100924.38;;;2.18;77.09
35577;BME280;21680;52.400;16.920;2023-04-07T05:23:17;100924.38;;;2.19;77.08
35577;BME280;21680;52.400;16.920;2023-04-07T05:25:42;100921.39;;;2.17;77.27
35577;BME280;21680;52.400;16.920;2023-04-07T05:28:08;100922.44;;;2.18;77.38
35577;BME280;21680;52.400;16.920;2023-04-07T05:30:33;100922.09;;;2.20;77.36
35577;BME280;21680;52.400;16.920;2023-04-07T05:32:58;100921.21;;;2.19;77.42
35577;BME280;21680;52.400;16.920;2023-04-07T05:35:23;100919.62;;;2.20;77.38
35577;BME280;21680;52.400;16.920;2023-04-07T05:37:49;100917.31;;;2.22;77.47
35577;BME280;21680;52.400;16.920;2023-04-07T05:40:15;100916.25;;;2.22;77.49
35577;BME280;21680;52.400;16.920;2023-04-07T05:42:40;100914.13;;;2.24;77.68
35577;BME280;21680;52.400;16.920;2023-04-07T05:45:07;100913.44;;;2.22;77.64
35577;BME280;21680;52.400;16.920;2023-04-07T05:47:32;100915.75;;;2.19;77.53
35577;BME280;21680;52.400;16.920;2023-04-07T05:49:58;100915.94;;;2.14;77.79
35577;BME280;21680;52.400;16.920;2023-04-07T05:52:23;100923.16;;;2.15;77.88
35577;BME280;21680;52.400;16.920;2023-04-07T05:54:48;100923.34;;;2.16;77.93
35577;BME280;21680;52.400;16.920;2023-04-07T05:57:13;100921.39;;;2.17;77.92
35577;BME280;21680;52.400;16.920;2023-04-07T05:59:39;100922.80;;;2.18;78.21
35577;BME280;21680;52.400;16.920;2023-04-07T06:02:04;100919.81;;;2.15;78.28
35577;BME280;21680;52.400;16.920;2023-04-07T06:04:29;100921.39;;;2.17;78.54
35577;BME280;21680;52.400;16.920;2023-04-07T06:06:55;100922.27;;;2.20;78.60
35577;BME280;21680;52.400;16.920;2023-04-07T06:09:21;100921.90;;;2.23;78.68
35577;BME280;21680;52.400;16.920;2023-04-07T06:11:46;100920.83;;;2.25;78.53
35577;BME280;21680;52.400;16.920;2023-04-07T06:14:12;100921.17;;;2.26;78.53
35577;BME280;21680;52.400;16.920;2023-04-07T06:16:38;100923.10;;;2.29;78.66
35577;BME280;21680;52.400;16.920;2023-04-07T06:19:03;100922.91;;;2.30;78.62
35577;BME280;21680;52.400;16.920;2023-04-07T06:21:29;100925.38;;;2.32;78.80
35577;BME280;21680;52.400;16.920;2023-04-07T06:23:54;100927.29;;;2.36;78.87
35577;BME280;21680;52.400;16.920;2023-04-07T06:26:20;100929.58;;;2.39;78.74
35577;BME280;21680;52.400;16.920;2023-04-07T06:28:46;100925.70;;;2.38;78.89
35577;BME280;21680;52.400;16.920;2023-04-07T06:31:11;100926.74;;;2.40;78.83
35577;BME280;21680;52.400;16.920;2023-04-07T06:33:37;100927.95;;;2.44;78.90
35577;BME280;21680;52.400;16.920;2023-04-07T06:36:02;100929.88;;;2.47;78.95
35577;BME280;21680;52.400;16.920;2023-04-07T06:38:27;100924.94;;;2.49;78.97
35577;BME280;21680;52.400;16.920;2023-04-07T06:40:53;100929.89;;;2.45;79.09
35577;BME280;21680;52.400;16.920;2023-04-07T06:43:18;100926.72;;;2.44;79.32
35577;BME280;21680;52.400;16.920;2023-04-07T06:45:43;100925.48;;;2.46;79.67
35577;BME280;21680;52.400;16.920;2023-04-07T06:48:08;100922.46;;;2.49;79.38
35577;BME280;21680;52.400;16.920;2023-04-07T06:50:36;100917.52;;;2.48;79.35
35577;BME280;21680;52.400;16.920;2023-04-07T06:53:02;100917.19;;;2.45;79.42
35577;BME280;21680;52.400;16.920;2023-04-07T06:55:27;100914.70;;;2.47;79.68
35577;BME280;21680;52.400;16.920;2023-04-07T06:57:53;100914.86;;;2.52;79.80
35577;BME280;21680;52.400;16.920;2023-04-07T07:00:18;100913.98;;;2.50;79.63
35577;BME280;21680;52.400;16.920;2023-04-07T07:02:43;100915.39;;;2.50;79.88
35577;BME280;21680;52.400;16.920;2023-04-07T07:05:09;100916.08;;;2.53;79.97
35577;BME280;21680;52.400;16.920;2023-04-07T07:07:36;100918.00;;;2.56;79.96
35577;BME280;21680;52.400;16.920;2023-04-07T07:10:01;100917.61;;;2.60;80.22
35577;BME280;21680;52.400;16.920;2023-04-07T07:12:27;100919.66;;;2.67;80.27
35577;BME280;21680;52.400;16.920;2023-04-07T07:14:52;100922.27;;;2.72;80.17
35577;BME280;21680;52.400;16.920;2023-04-07T07:17:17;100920.67;;;2.73;80.13
35577;BME280;21680;52.400;16.920;2023-04-07T07:19:42;100916.62;;;2.74;80.26
35577;BME280;21680;52.400;16.920;2023-04-07T07:22:08;100912.72;;;2.75;80.42
35577;BME280;21680;52.400;16.920;2023-04-07T07:24:33;100909.77;;;2.69;80.68
35577;BME280;21680;52.400;16.920;2023-04-07T07:26:59;100913.84;;;2.68;80.89
35577;BME280;21680;52.400;16.920;2023-04-07T07:29:26;100920.86;;;2.73;81.04
35577;BME280;21680;52.400;16.920;2023-04-07T07:31:51;100927.01;;;2.77;80.92
35577;BME280;21680;52.400;16.920;2023-04-07T07:34:16;100926.13;;;2.77;80.79
35577;BME280;21680;52.400;16.920;2023-04-07T07:36:41;100928.40;;;2.79;80.93
35577;BME280;21680;52.400;16.920;2023-04-07T07:39:06;100932.42;;;2.85;81.10
35577;BME280;21680;52.400;16.920;2023-04-07T07:41:32;100928.13;;;2.92;81.28
35577;BME280;21680;52.400;16.920;2023-04-07T07:43:57;100931.09;;;2.97;81.21
35577;BME280;21680;52.400;16.920;2023-04-07T07:46:23;100932.30;;;3.01;81.20
35577;BME280;21680;52.400;16.920;2023-04-07T07:48:50;100933.15;;;3.04;81.14
35577;BME280;21680;52.400;16.920;2023-04-07T07:51:15;100933.48;;;3.05;81.33
35577;BME280;21680;52.400;16.920;2023-04-07T07:53:42;100932.96;;;3.06;81.37
35577;BME280;21680;52.400;16.920;2023-04-07T07:56:08;100930.13;;;3.07;81.34
35577;BME280;21680;52.400;16.920;2023-04-07T07:58:34;100930.14;;;3.05;81.56
35577;BME280;21680;52.400;16.920;2023-04-07T08:00:59;100931.02;;;3.07;81.50
35577;BME280;21680;52.400;16.920;2023-04-07T08:03:24;100935.08;;;3.06;81.67
35577;BME280;21680;52.400;16.920;2023-04-07T08:05:50;100934.73;;;3.06;81.73
35577;BME280;21680;52.400;16.920;2023-04-07T08:08:15;100936.27;;;3.10;81.77
35577;BME280;21680;52.400;16.920;2023-04-07T08:10:40;100938.73;;;3.13;81.59
35577;BME280;21680;52.400;16.920;2023-04-07T08:13:06;100935.53;;;3.16;81.65
35577;BME280;21680;52.400;16.920;2023-04-07T08:15:31;100936.25;;;3.14;81.74
35577;BME280;21680;52.400;16.920;2023-04-07T08:17:56;100937.30;;;3.15;81.88
35577;BME280;21680;52.400;16.920;2023-04-07T08:20:22;100931.28;;;3.17;81.89
35577;BME280;21680;52.400;16.920;2023-04-07T08:22:47;100926.31;;;3.20;82.09
35577;BME280;21680;52.400;16.920;2023-04-07T08:25:13;100931.06;;;3.22;82.37
35577;BME280;21680;52.400;16.920;2023-04-07T08:27:38;100938.84;;;3.21;82.50
35577;BME280;21680;52.400;16.920;2023-04-07T08:30:05;100939.88;;;3.23;82.57
35577;BME280;21680;52.400;16.920;2023-04-07T08:32:38;100944.11;;;3.24;82.56
35577;BME280;21680;52.400;16.920;2023-04-07T08:35:05;100941.80;;;3.26;82.57
35577;BME280;21680;52.400;16.920;2023-04-07T08:37:31;100941.95;;;3.29;82.66
35577;BME280;21680;52.400;16.920;2023-04-07T08:39:57;100945.83;;;3.30;82.47
35577;BME280;21680;52.400;16.920;2023-04-07T08:42:26;100946.50;;;3.34;82.51
35577;BME280;21680;52.400;16.920;2023-04-07T08:44:55;100949.63;;;3.39;82.83
35577;BME280;21680;52.400;16.920;2023-04-07T08:47:21;100952.23;;;3.44;82.84
35577;BME280;21680;52.400;16.920;2023-04-07T08:49:50;100950.60;;;3.48;82.96
35577;BME280;21680;52.400;16.920;2023-04-07T08:52:17;100945.80;;;3.51;82.93
35577;BME280;21680;52.400;16.920;2023-04-07T08:54:46;100946.51;;;3.51;82.98
35577;BME280;21680;52.400;16.920;2023-04-07T08:57:13;100944.23;;;3.49;82.84
35577;BME280;21680;52.400;16.920;2023-04-07T08:59:40;100945.65;;;3.48;82.87
35577;BME280;21680;52.400;16.920;2023-04-07T09:02:08;100943.52;;;3.50;82.96
35577;BME280;21680;52.400;16.920;2023-04-07T09:04:34;100939.75;;;3.55;83.32
35577;BME280;21680;52.400;16.920;2023-04-07T09:07:00;100939.16;;;3.62;83.36
35577;BME280;21680;52.400;16.920;2023-04-07T09:09:26;100940.14;;;3.68;83.33
35577;BME280;21680;52.400;16.920;2023-04-07T09:11:51;100939.57;;;3.73;83.36
35577;BME280;21680;52.400;16.920;2023-04-07T09:14:17;100939.35;;;3.77;83.05
35577;BME280;21680;52.400;16.920;2023-04-07T09:16:45;100940.88;;;3.83;83.20
35577;BME280;21680;52.400;16.920;2023-04-07T09:19:11;100941.19;;;3.86;83.32
35577;BME280;21680;52.400;16.920;2023-04-07T09:24:20;100936.92;;;3.89;83.30
35577;BME280;21680;52.400;16.920;2023-04-07T09:26:46;100936.72;;;3.91;83.32
35577;BME280;21680;52.400;16.920;2023-04-07T09:29:17;100935.25;;;3.96;83.45
35577;BME280;21680;52.400;16.920;2023-04-07T09:31:49;100935.24;;;3.97;83.47
35577;BME280;21680;52.400;16.920;2023-04-07T09:36:48;100930.67;;;3.95;83.80
35577;BME280;21680;52.400;16.920;2023-04-07T09:39:13;100928.55;;;3.94;83.85
35577;BME280;21680;52.400;16.920;2023-04-07T09:41:39;100930.16;;;3.92;84.14
35577;BME280;21680;52.400;16.920;2023-04-07T09:44:04;100931.77;;;3.91;84.28
35577;BME280;21680;52.400;16.920;2023-04-07T09:46:30;100930.71;;;3.91;84.11
35577;BME280;21680;52.400;16.920;2023-04-07T09:49:03;100927.67;;;3.94;84.34
35577;BME280;21680;52.400;16.920;2023-04-07T09:51:29;100929.19;;;4.00;84.17
35577;BME280;21680;52.400;16.920;2023-04-07T09:53:54;100921.05;;;4.00;84.50
35577;BME280;21680;52.400;16.920;2023-04-07T09:56:21;100922.30;;;4.00;84.43
35577;BME280;21680;52.400;16.920;2023-04-07T09:58:47;100925.05;;;4.06;84.71
35577;BME280;21680;52.400;16.920;2023-04-07T10:01:15;100920.33;;;4.15;84.67
35577;BME280;21680;52.400;16.920;2023-04-07T10:03:41;100920.40;;;4.24;84.90
35577;BME280;21680;52.400;16.920;2023-04-07T10:06:07;100915.39;;;4.29;84.80
35577;BME280;21680;52.400;16.920;2023-04-07T10:08:37;100912.23;;;4.26;84.88
35577;BME280;21680;52.400;16.920;2023-04-07T10:11:04;100917.16;;;4.28;84.97
35577;BME280;21680;52.400;16.920;2023-04-07T10:13:33;100918.66;;;4.35;84.88
35577;BME280;21680;52.400;16.920;2023-04-07T10:16:02;100915.74;;;4.41;85.10
35577;BME280;21680;52.400;16.920;2023-04-07T10:18:29;100912.45;;;4.48;85.18
35577;BME280;21680;52.400;16.920;2023-04-07T10:20:56;100906.70;;;4.55;85.23
35577;BME280;21680;52.400;16.920;2023-04-07T10:23:26;100911.27;;;4.57;85.13
35577;BME280;21680;52.400;16.920;2023-04-07T10:25:55;100909.36;;;4.54;85.45
35577;BME280;21680;52.400;16.920;2023-04-07T10:28:24;100909.95;;;4.50;85.62
35577;BME280;21680;52.400;16.920;2023-04-07T10:30:51;100905.98;;;4.56;85.80
35577;BME280;21680;52.400;16.920;2023-04-07T10:33:17;100903.08;;;4.61;85.60
35577;BME280;21680;52.400;16.920;2023-04-07T10:36:05;100900.20;;;4.64;86.04
35577;BME280;21680;52.400;16.920;2023-04-07T10:38:31;100898.40;;;4.66;86.20
35577;BME280;21680;52.400;16.920;2023-04-07T10:40:57;100898.01;;;4.68;86.21
35577;BME280;21680;52.400;16.920;2023-04-07T10:43:39;100899.24;;;4.68;86.21
35577;BME280;21680;52.400;16.920;2023-04-07T10:46:06;100896.23;;;4.68;86.19
35577;BME280;21680;52.400;16.920;2023-04-07T10:48:31;100894.00;;;4.75;86.39
35577;BME280;21680;52.400;16.920;2023-04-07T10:53:29;100892.97;;;4.85;86.34
35577;BME280;21680;52.400;16.920;2023-04-07T10:55:56;100892.51;;;4.91;86.51
35577;BME280;21680;52.400;16.920;2023-04-07T10:58:29;100898.77;;;4.99;86.55
35577;BME280;21680;52.400;16.920;2023-04-07T11:03:41;100903.23;;;5.06;86.41
35577;BME280;21680;52.400;16.920;2023-04-07T11:06:08;100901.41;;;5.10;86.38
35577;BME280;21680;52.400;16.920;2023-04-07T11:08:38;100902.30;;;5.09;86.31
35577;BME280;21680;52.400;16.920;2023-04-07T11:11:04;100904.36;;;5.13;86.36
35577;BME280;21680;52.400;16.920;2023-04-07T11:13:53;100904.17;;;5.14;86.35
35577;BME280;21680;52.400;16.920;2023-04-07T11:16:19;100901.30;;;5.16;86.39
35577;BME280;21680;52.400;16.920;2023-04-07T11:18:58;100896.86;;;5.17;86.72
35577;BME280;21680;52.400;16.920;2023-04-07T11:21:23;100898.77;;;5.19;86.69
35577;BME280;21680;52.400;16.920;2023-04-07T11:23:48;100902.38;;;5.15;86.63
35577;BME280;21680;52.400;16.920;2023-04-07T11:26:14;100905.67;;;5.09;86.63
35577;BME280;21680;52.400;16.920;2023-04-07T11:28:51;100901.45;;;5.07;87.06
35577;BME280;21680;52.400;16.920;2023-04-07T11:31:35;100896.48;;;5.08;86.92
35577;BME280;21680;52.400;16.920;2023-04-07T11:34:02;100897.73;;;5.07;86.79
35577;BME280;21680;52.400;16.920;2023-04-07T11:36:34;100898.66;;;5.05;86.94
35577;BME280;21680;52.400;16.920;2023-04-07T11:39:01;100893.56;;;5.02;87.14
35577;BME280;21680;52.400;16.920;2023-04-07T11:41:28;100898.67;;;5.04;87.17
35577;BME280;21680;52.400;16.920;2023-04-07T11:44:07;100893.19;;;5.03;87.21
35577;BME280;21680;52.400;16.920;2023-04-07T11:46:33;100888.36;;;5.06;87.42
35577;BME280;21680;52.400;16.920;2023-04-07T11:49:13;100888.00;;;5.07;87.33
35577;BME280;21680;52.400;16.920;2023-04-07T11:51:41;100884.33;;;5.05;87.58
35577;BME280;21680;52.400;16.920;2023-04-07T11:54:07;100886.45;;;5.05;87.70
35577;BME280;21680;52.400;16.920;2023-04-07T11:56:43;100889.63;;;5.05;87.69
35577;BME280;21680;52.400;16.920;2023-04-07T11:59:18;100889.96;;;5.06;87.70
35577;BME280;21680;52.400;16.920;2023-04-07T12:01:44;100888.02;;;5.06;87.89
35577;BME280;21680;52.400;16.920;2023-04-07T12:04:12;100885.89;;;5.06;87.86
35577;BME280;21680;52.400;16.920;2023-04-07T12:06:38;100891.17;;;5.08;88.07
35577;BME280;21680;52.400;16.920;2023-04-07T12:09:06;100888.52;;;5.08;87.99
35577;BME280;21680;52.400;16.920;2023-04-07T12:11:32;100882.99;;;5.09;88.27
35577;BME280;21680;52.400;16.920;2023-04-07T12:13:59;100883.48;;;5.12;88.35
35577;BME280;21680;52.400;16.920;2023-04-07T12:16:24;100881.34;;;5.12;88.44
35577;BME280;21680;52.400;16.920;2023-04-07T12:18:50;100882.38;;;5.14;88.37
35577;BME280;21680;52.400;16.920;2023-04-07T12:21:17;100877.20;;;5.16;88.55
35577;BME280;21680;52.400;16.920;2023-04-07T12:23:43;100877.55;;;5.16;88.54
35577;BME280;21680;52.400;16.920;2023-04-07T12:26:09;100874.58;;;5.23;88.44
35577;BME280;21680;52.400;16.920;2023-04-07T12:28:36;100875.77;;;5.26;88.52
35577;BME280;21680;52.400;16.920;2023-04-07T12:31:02;100874.66;;;5.28;88.67
35577;BME280;21680;52.400;16.920;2023-04-07T12:33:27;100878.89;;;5.30;88.74
35577;BME280;21680;52.400;16.920;2023-04-07T12:35:52;100881.66;;;5.33;88.80
35577;BME280;21680;52.400;16.920;2023-04-07T12:38:18;100884.70;;;5.31;88.93
35577;BME280;21680;52.400;16.920;2023-04-07T12:40:43;100886.89;;;5.28;89.29
35577;BME280;21680;52.400;16.920;2023-04-07T12:43:08;100886.07;;;5.24;89.37
35577;BME280;21680;52.400;16.920;2023-04-07T12:45:34;100885.38;;;5.23;89.41
35577;BME280;21680;52.400;16.920;2023-04-07T12:47:59;100890.67;;;5.25;89.50
35577;BME280;21680;52.400;16.920;2023-04-07T12:50:25;100888.04;;;5.23;89.78
35577;BME280;21680;52.400;16.920;2023-04-07T12:52:51;100886.79;;;5.23;89.76
35577;BME280;21680;52.400;16.920;2023-04-07T12:55:17;100886.73;;;5.27;89.59
35577;BME280;21680;52.400;16.920;2023-04-07T12:57:43;100879.06;;;5.30;89.79
35577;BME280;21680;52.400;16.920;2023-04-07T13:00:09;100879.41;;;5.30;89.95